KTHA/THA METAR and TAF weather

Enter ICAO airport designator
Station Type Date Time Source
KTHA METAR 2023/01/30 10:35 UTC NOAA

KTHA 301035Z AUTO 00000KT 5SM BR OVC008 10/10 A3012 RMK A01


Station Type Date Time Source
KTHA Decoded METAR 2023/01/30 10:35 UTC NOAA

Station name not available
Jan 30, 2023 - 05:35 AM EST / 2023.01.30 1035 UTC
Wind: Calm:0
Visibility: 5 mile(s):0
Sky conditions: overcast
Weather: mist
Temperature: 50 F (10 C)
Dew Point: 50 F (10 C)
Relative Humidity: 100%
Pressure (altimeter): 30.12 in. Hg (1019 hPa)
ob: KTHA 301035Z AUTO 00000KT 5SM BR OVC008 10/10 A3012 RMK A01
cycle: 10

Station Type Date Time Source
KTHA TAF UTC NOAA

Error!

Example: see airport list